Blackie, Canada
Current Conditions -  °F | °C
As of 9:00 PM on Tuesday 25 Nov 2014 (Local Time) from CYYC Reporting Station
Light Snow Light Snow  
Wind Chill: 16°   Ceiling: 400
Heat Index: 25°   Visibility: 2.5mi
Dew Point: 23°   Wind: 8mph
Humidity: 93%   Direction: 170°S
Pressure: 30.1"   Gusts: NA
Location:  50.6°N, 113.62°W
Report Text: CYYC 260400Z 17007KT 2 1/2SM -SN BR VV004 M04/M05 A3010 RMK FG8 VIS VRB 11/2-3 SLP249
Loading
Personal Weather Stations






























Interactive Weather Map New forecast layout! Learn more

10-Day Weather Forecast

Advertisements
Track Severe Weather on mobile